createdAt,value
2023-03-20T00:01:19.644Z,7.37
2023-03-20T00:03:48.171Z,7.90
2023-03-20T00:06:17.519Z,8.87
2023-03-20T00:08:46.717Z,8.17
2023-03-20T00:11:28.984Z,7.00
2023-03-20T00:13:58.221Z,7.13
2023-03-20T00:16:28.925Z,7.80
2023-03-20T00:18:57.329Z,7.47
2023-03-20T00:21:25.692Z,8.20
2023-03-20T00:23:54.504Z,7.77
2023-03-20T00:26:24.707Z,7.47
2023-03-20T00:28:54.412Z,7.93
2023-03-20T00:31:24.577Z,9.07
2023-03-20T00:33:52.973Z,8.70
2023-03-20T00:36:21.336Z,7.90
2023-03-20T00:38:49.577Z,7.83
2023-03-20T00:41:23.608Z,8.10
2023-03-20T00:43:53.327Z,7.33
2023-03-20T00:46:23.115Z,7.97
2023-03-20T00:48:51.815Z,8.37
2023-03-20T00:51:20.361Z,8.10
2023-03-20T00:53:48.640Z,7.80
2023-03-20T00:56:30.440Z,7.20
2023-03-20T00:58:58.843Z,7.17
2023-03-20T01:01:28.408Z,6.83
2023-03-20T01:03:56.605Z,6.63
2023-03-20T01:06:24.741Z,6.93
2023-03-20T01:08:52.900Z,6.00
2023-03-20T01:11:23.804Z,6.67
2023-03-20T01:13:52.338Z,7.07
2023-03-20T01:16:22.317Z,7.10
2023-03-20T01:18:52.048Z,7.50
2023-03-20T01:21:21.140Z,6.80
2023-03-20T01:23:49.524Z,6.73
2023-03-20T01:26:22.323Z,7.27
2023-03-20T01:28:50.550Z,7.40
2023-03-20T01:31:19.396Z,7.43
2023-03-20T01:33:47.750Z,6.97
2023-03-20T01:36:19.608Z,7.03
2023-03-20T01:38:47.854Z,7.27
2023-03-20T01:41:18.051Z,7.47
2023-03-20T01:43:46.983Z,6.93
2023-03-20T01:46:20.128Z,7.50
2023-03-20T01:49:08.966Z,7.57
2023-03-20T01:51:38.519Z,8.00
2023-03-20T01:54:09.094Z,8.10
2023-03-20T01:56:39.356Z,7.63
2023-03-20T01:59:10.281Z,7.97
2023-03-20T02:01:38.856Z,8.30
2023-03-20T02:04:09.107Z,8.50
2023-03-20T02:06:40.210Z,9.20
2023-03-20T02:09:09.541Z,9.17
2023-03-20T02:11:38.740Z,10.00
2023-03-20T02:14:07.052Z,10.40
2023-03-20T02:16:35.322Z,10.00
2023-03-20T02:19:03.700Z,9.40
2023-03-20T02:21:50.756Z,9.70
2023-03-20T02:24:33.007Z,9.17
2023-03-20T02:27:08.132Z,8.87
2023-03-20T02:29:46.931Z,9.60
2023-03-20T02:32:33.075Z,9.17
2023-03-20T02:35:18.653Z,9.43
2023-03-20T02:37:56.428Z,9.07
2023-03-20T02:40:29.097Z,9.93
2023-03-20T02:43:00.306Z,10.30
2023-03-20T02:45:29.488Z,10.83
2023-03-20T02:48:01.125Z,10.40
2023-03-20T02:50:34.157Z,11.13
2023-03-20T02:53:09.528Z,11.37
2023-03-20T02:55:41.661Z,10.67
2023-03-20T02:58:14.318Z,11.17
2023-03-20T03:00:47.516Z,10.93
2023-03-20T03:03:19.419Z,10.67
2023-03-20T03:05:51.426Z,11.43
2023-03-20T03:08:22.394Z,11.03
2023-03-20T03:10:52.969Z,10.60
2023-03-20T03:13:23.094Z,10.43
2023-03-20T03:15:52.904Z,11.87
2023-03-20T03:18:21.768Z,11.30
2023-03-20T03:20:51.952Z,11.20
2023-03-20T03:23:22.910Z,11.97
2023-03-20T03:25:52.572Z,11.27
2023-03-20T03:28:24.693Z,11.33
2023-03-20T03:30:53.780Z,10.73
2023-03-20T03:33:23.301Z,10.23
2023-03-20T03:35:53.158Z,11.37
2023-03-20T03:38:27.050Z,11.77
2023-03-20T03:41:01.281Z,10.40
2023-03-20T03:43:30.634Z,9.87
2023-03-20T03:46:01.188Z,10.83
2023-03-20T03:48:33.209Z,11.00
2023-03-20T03:51:03.605Z,11.57
2023-03-20T03:53:35.245Z,11.07
2023-03-20T03:56:05.327Z,11.17
2023-03-20T03:58:35.309Z,10.50
2023-03-20T04:01:04.316Z,10.70
2023-03-20T04:03:33.882Z,11.00
2023-03-20T04:06:02.636Z,10.77
2023-03-20T04:08:30.878Z,10.97
2023-03-20T04:11:00.736Z,10.00
2023-03-20T04:13:28.890Z,11.37
2023-03-20T04:15:57.316Z,10.90
2023-03-20T04:18:25.695Z,10.23
2023-03-20T04:20:54.704Z,10.23
2023-03-20T04:23:22.869Z,10.37
2023-03-20T04:25:51.624Z,10.50
2023-03-20T04:28:21.299Z,10.63
2023-03-20T04:30:53.851Z,10.13
2023-03-20T04:33:22.062Z,10.30
2023-03-20T04:35:50.488Z,10.60
2023-03-20T04:38:19.056Z,10.77
2023-03-20T04:40:47.842Z,10.57
2023-03-20T04:43:16.527Z,10.67
2023-03-20T04:45:46.090Z,10.47
2023-03-20T04:48:14.228Z,11.13
2023-03-20T04:50:42.441Z,10.33
2023-03-20T04:53:10.753Z,10.20
2023-03-20T04:55:38.973Z,10.13
2023-03-20T04:58:07.186Z,9.87
2023-03-20T05:00:35.836Z,10.63
2023-03-20T05:03:05.457Z,10.57
2023-03-20T05:05:34.442Z,10.87
2023-03-20T05:08:02.949Z,10.20
2023-03-20T05:10:31.192Z,10.30
2023-03-20T05:12:59.587Z,9.87
2023-03-20T05:15:28.313Z,10.20
2023-03-20T05:17:56.462Z,10.00
2023-03-20T05:20:26.000Z,10.57
2023-03-20T05:22:54.196Z,10.30
2023-03-20T05:25:22.382Z,10.17
2023-03-20T05:27:50.554Z,10.10
2023-03-20T05:30:19.640Z,10.27
2023-03-20T05:32:48.007Z,10.57
2023-03-20T05:35:16.371Z,10.20
2023-03-20T05:37:46.209Z,9.83
2023-03-20T05:40:15.356Z,11.20
2023-03-20T05:42:43.743Z,9.87
2023-03-20T05:45:12.323Z,9.43
2023-03-20T05:47:40.768Z,10.87
2023-03-20T05:50:09.194Z,10.03
2023-03-20T05:52:37.320Z,9.47
2023-03-20T05:55:07.380Z,9.57
2023-03-20T05:57:35.842Z,9.10
2023-03-20T06:00:05.525Z,8.90
2023-03-20T06:02:33.784Z,8.77
2023-03-20T06:05:02.065Z,9.50
2023-03-20T06:07:30.394Z,8.77
2023-03-20T06:09:58.554Z,8.27
2023-03-20T06:12:28.080Z,8.60
2023-03-20T06:14:56.292Z,8.97
2023-03-20T06:17:24.536Z,7.73
2023-03-20T06:19:52.759Z,8.30
2023-03-20T06:22:20.984Z,8.00
2023-03-20T06:24:49.145Z,7.90
2023-03-20T06:27:17.379Z,7.30
2023-03-20T06:29:47.130Z,7.33
2023-03-20T06:32:17.268Z,7.30
2023-03-20T06:34:45.502Z,6.73
2023-03-20T06:37:13.710Z,7.37
2023-03-20T06:39:42.125Z,7.17
2023-03-20T06:42:10.634Z,6.70
2023-03-20T06:44:39.062Z,6.50
2023-03-20T06:47:08.657Z,6.47
2023-03-20T06:49:36.810Z,6.07
2023-03-20T06:52:05.012Z,6.97
2023-03-20T06:54:33.201Z,7.57
2023-03-20T06:57:01.378Z,6.13
2023-03-20T06:59:29.556Z,6.07
2023-03-20T07:01:58.228Z,6.23
2023-03-20T07:04:27.929Z,5.73
2023-03-20T07:06:56.674Z,5.77
2023-03-20T07:09:25.100Z,6.10
2023-03-20T07:11:53.714Z,5.77
2023-03-20T07:14:22.492Z,5.53
2023-03-20T07:16:50.943Z,6.30
2023-03-20T07:19:19.349Z,6.20
2023-03-20T07:21:49.044Z,6.03
2023-03-20T07:24:17.876Z,5.97
2023-03-20T07:26:46.353Z,6.40
2023-03-20T07:29:14.905Z,5.90
2023-03-20T07:31:43.159Z,6.43
2023-03-20T07:34:11.394Z,5.70
2023-03-20T07:36:41.201Z,6.00
2023-03-20T07:39:11.150Z,6.30
2023-03-20T07:41:39.345Z,5.73
2023-03-20T07:44:08.259Z,5.77
2023-03-20T07:46:36.422Z,5.67
2023-03-20T07:49:05.767Z,6.20
2023-03-20T07:51:34.245Z,6.20
2023-03-20T07:54:02.354Z,6.90
2023-03-20T07:56:31.890Z,8.37
2023-03-20T07:59:00.087Z,8.20
2023-03-20T08:01:28.323Z,8.30
2023-03-20T08:03:56.847Z,8.20
2023-03-20T08:06:25.081Z,9.83
2023-03-20T08:08:53.805Z,8.17
2023-03-20T08:11:22.002Z,11.43
2023-03-20T08:13:51.627Z,11.50
2023-03-20T08:16:19.918Z,11.10
2023-03-20T08:18:48.455Z,18.07
2023-03-20T08:21:16.594Z,15.43
2023-03-20T08:23:44.733Z,18.13
2023-03-20T08:26:12.969Z,22.87
2023-03-20T08:28:47.420Z,26.27
2023-03-20T08:31:18.668Z,35.30
2023-03-20T08:33:47.321Z,25.30
2023-03-20T08:36:16.233Z,26.90
2023-03-20T08:38:44.789Z,24.77
2023-03-20T08:41:12.936Z,25.90
2023-03-20T08:43:41.123Z,26.10
2023-03-20T08:46:09.638Z,28.73
2023-03-20T08:48:39.213Z,21.30
2023-03-20T08:51:08.256Z,19.83
2023-03-20T08:53:36.546Z,32.50
2023-03-20T08:56:05.303Z,30.87
2023-03-20T08:58:33.515Z,29.37
2023-03-20T09:01:05.358Z,41.60
2023-03-20T09:03:33.520Z,37.43
2023-03-20T09:06:03.112Z,45.30
2023-03-20T09:08:32.065Z,34.23
2023-03-20T09:11:00.529Z,39.17
2023-03-20T09:13:28.757Z,33.37
2023-03-20T09:15:58.147Z,30.77
2023-03-20T09:18:27.794Z,38.53
2023-03-20T09:20:57.011Z,43.00
2023-03-20T09:23:26.618Z,53.17
2023-03-20T09:25:54.794Z,61.63
2023-03-20T09:28:23.194Z,58.60
2023-03-20T09:30:51.492Z,39.17
2023-03-20T09:33:19.709Z,37.17
2023-03-20T09:35:48.074Z,46.83
2023-03-20T09:38:16.269Z,64.47
2023-03-20T09:40:52.515Z,47.90
2023-03-20T09:43:28.597Z,54.30
2023-03-20T09:46:02.403Z,54.77
2023-03-20T09:48:34.038Z,62.47
2023-03-20T09:51:05.509Z,63.63
2023-03-20T09:53:35.444Z,54.30
2023-03-20T09:56:05.277Z,52.73
2023-03-20T09:58:34.812Z,39.37
2023-03-20T10:01:04.631Z,29.87
2023-03-20T10:03:38.339Z,39.37
2023-03-20T10:06:07.851Z,43.27
2023-03-20T10:08:37.258Z,46.83
2023-03-20T10:11:12.443Z,41.00
2023-03-20T10:13:45.960Z,54.33
2023-03-20T10:16:17.527Z,53.10
2023-03-20T10:18:48.332Z,71.30
2023-03-20T10:21:18.797Z,50.30
2023-03-20T10:23:51.809Z,31.30
2023-03-20T10:26:22.578Z,29.27
2023-03-20T10:28:52.547Z,39.33
2023-03-20T10:31:25.773Z,49.23
2023-03-20T10:33:59.024Z,56.37
2023-03-20T10:36:36.045Z,61.87
2023-03-20T10:39:06.831Z,71.23
2023-03-20T10:41:38.138Z,71.53
2023-03-20T10:44:08.170Z,74.97
2023-03-20T10:46:38.001Z,68.10
2023-03-20T10:49:08.705Z,85.43
2023-03-20T10:51:40.817Z,59.23
2023-03-20T10:54:15.608Z,45.03
2023-03-20T10:56:47.911Z,51.73
2023-03-20T10:59:19.416Z,56.60
2023-03-20T11:01:47.536Z,50.73
2023-03-20T11:04:15.785Z,46.07
2023-03-20T11:06:48.061Z,62.07
2023-03-20T11:09:19.085Z,48.20
2023-03-20T11:11:49.528Z,44.97
2023-03-20T11:14:19.351Z,52.77
2023-03-20T11:16:49.991Z,44.17
2023-03-20T11:19:18.789Z,41.77
2023-03-20T11:21:48.160Z,32.83
2023-03-20T11:24:29.547Z,44.03
2023-03-20T11:27:06.292Z,31.57
2023-03-20T11:29:35.769Z,42.03
2023-03-20T11:32:07.774Z,59.00
2023-03-20T11:34:38.707Z,59.97
2023-03-20T11:37:10.783Z,61.43
2023-03-20T11:39:42.066Z,68.90
2023-03-20T11:42:24.131Z,98.57
2023-03-20T11:44:58.673Z,84.27
2023-03-20T11:47:28.011Z,112.00
2023-03-20T11:49:56.951Z,119.73
2023-03-20T11:52:28.678Z,158.57
2023-03-20T11:54:58.030Z,165.70
2023-03-20T11:57:33.535Z,157.10
2023-03-20T12:00:03.622Z,147.93
2023-03-20T12:02:31.982Z,118.97
2023-03-20T12:05:01.433Z,129.83
2023-03-20T12:07:31.771Z,133.57
2023-03-20T12:10:01.625Z,141.70
2023-03-20T12:12:36.920Z,140.73
2023-03-20T12:15:09.921Z,150.27
2023-03-20T12:17:44.477Z,173.50
2023-03-20T12:20:25.082Z,193.13
2023-03-20T12:22:56.283Z,159.47
2023-03-20T12:25:26.011Z,155.43
2023-03-20T12:28:06.263Z,194.90
2023-03-20T12:30:41.064Z,148.07
2023-03-20T12:33:12.950Z,175.17
2023-03-20T12:35:44.687Z,190.27
2023-03-20T12:38:19.850Z,241.97
2023-03-20T12:40:48.043Z,196.50
2023-03-20T12:43:20.622Z,229.80
2023-03-20T12:45:53.338Z,196.00
2023-03-20T12:48:33.850Z,180.97
2023-03-20T12:51:05.742Z,172.53
2023-03-20T12:53:41.082Z,201.53
2023-03-20T12:56:15.595Z,226.97
2023-03-20T12:58:46.822Z,255.47
2023-03-20T13:01:19.540Z,270.97
2023-03-20T13:03:57.866Z,237.13
2023-03-20T13:06:32.207Z,258.67
2023-03-20T13:09:06.478Z,214.27
2023-03-20T13:11:38.366Z,199.13
2023-03-20T13:14:11.758Z,212.50
2023-03-20T13:16:45.625Z,220.90
2023-03-20T13:19:15.738Z,213.90
2023-03-20T13:21:48.764Z,231.30
2023-03-20T13:24:23.254Z,255.60
2023-03-20T13:26:56.170Z,258.40
2023-03-20T13:29:28.317Z,265.87
2023-03-20T13:32:02.962Z,305.30
2023-03-20T13:34:35.694Z,264.77
2023-03-20T13:37:22.417Z,267.07
2023-03-20T13:40:00.314Z,302.30
2023-03-20T13:42:31.382Z,313.47
2023-03-20T13:45:03.829Z,351.33
2023-03-20T13:47:33.767Z,388.47
2023-03-20T13:50:05.377Z,396.70
2023-03-20T13:52:38.139Z,410.43
2023-03-20T13:55:16.335Z,486.30
2023-03-20T13:57:51.918Z,466.60
2023-03-20T14:00:26.539Z,557.27
2023-03-20T14:03:07.464Z,571.17
2023-03-20T14:05:37.789Z,612.30
2023-03-20T14:08:23.184Z,603.60
2023-03-20T14:10:57.688Z,637.50
2023-03-20T14:13:27.976Z,646.23
2023-03-20T14:15:58.817Z,584.27
2023-03-20T14:18:27.497Z,576.77
2023-03-20T14:20:56.934Z,594.57
2023-03-20T14:23:33.956Z,619.03
2023-03-20T14:26:02.434Z,663.97
2023-03-20T14:28:34.459Z,646.40
2023-03-20T14:31:22.964Z,596.07
2023-03-20T14:33:56.431Z,590.63
2023-03-20T14:36:27.783Z,649.60
2023-03-20T14:39:01.155Z,574.77
2023-03-20T14:41:32.054Z,609.53
2023-03-20T14:44:06.199Z,582.33
2023-03-20T14:46:42.097Z,657.03
2023-03-20T14:49:24.275Z,670.20
2023-03-20T14:51:54.524Z,679.07
2023-03-20T14:54:26.522Z,654.40
2023-03-20T14:56:54.792Z,687.93
2023-03-20T14:59:23.678Z,683.03
2023-03-20T15:01:58.861Z,716.43
2023-03-20T15:04:29.791Z,714.73
2023-03-20T15:06:59.483Z,724.93
2023-03-20T15:09:29.374Z,702.20
2023-03-20T15:12:04.114Z,686.67
2023-03-20T15:14:34.770Z,712.40
2023-03-20T15:17:05.389Z,717.33
2023-03-20T15:19:35.757Z,724.83
2023-03-20T15:22:03.992Z,731.27
2023-03-20T15:24:32.227Z,766.07
2023-03-20T15:27:01.423Z,716.90
2023-03-20T15:29:31.428Z,705.53
2023-03-20T15:32:13.383Z,734.20
2023-03-20T15:34:44.099Z,733.13
2023-03-20T15:37:15.529Z,739.73
2023-03-20T15:39:44.520Z,747.20
2023-03-20T15:42:15.044Z,760.67
2023-03-20T15:44:44.749Z,739.87
2023-03-20T15:47:16.863Z,768.17
2023-03-20T15:49:50.272Z,751.77
2023-03-20T15:52:22.687Z,707.43
2023-03-20T15:54:51.185Z,741.40
2023-03-20T15:57:23.955Z,747.80
2023-03-20T15:59:52.377Z,757.93
2023-03-20T16:02:21.075Z,751.67
2023-03-20T16:04:54.221Z,763.07
2023-03-20T16:07:23.485Z,736.63
2023-03-20T16:09:52.402Z,731.27
2023-03-20T16:12:20.802Z,725.03
2023-03-20T16:14:49.712Z,699.13
2023-03-20T16:17:18.871Z,652.70
2023-03-20T16:19:47.071Z,646.40
2023-03-20T16:22:21.118Z,609.67
2023-03-20T16:24:50.469Z,638.03
2023-03-20T16:27:23.861Z,644.50
2023-03-20T16:29:53.518Z,640.30
2023-03-20T16:32:26.790Z,663.90
2023-03-20T16:34:56.682Z,699.90
2023-03-20T16:37:27.789Z,693.27
2023-03-20T16:40:06.545Z,680.20
2023-03-20T16:42:34.957Z,720.60
2023-03-20T16:45:06.064Z,705.63
2023-03-20T16:47:39.212Z,691.70
2023-03-20T16:50:17.313Z,677.93
2023-03-20T16:52:49.067Z,668.27
2023-03-20T16:55:19.133Z,689.67
2023-03-20T16:57:49.672Z,692.03
2023-03-20T17:00:23.579Z,678.67
2023-03-20T17:02:52.991Z,663.00
2023-03-20T17:05:23.323Z,650.70
2023-03-20T17:07:57.838Z,656.63
2023-03-20T17:10:28.095Z,689.60
2023-03-20T17:12:56.307Z,653.60
2023-03-20T17:15:25.292Z,670.87
2023-03-20T17:17:53.542Z,686.23
2023-03-20T17:20:23.264Z,693.77
2023-03-20T17:22:52.903Z,671.47
2023-03-20T17:25:21.124Z,666.90
2023-03-20T17:27:49.289Z,658.93
2023-03-20T17:30:19.311Z,676.87
2023-03-20T17:32:47.824Z,689.93
2023-03-20T17:35:16.327Z,720.80
2023-03-20T17:37:44.489Z,715.23
2023-03-20T17:40:18.262Z,721.97
2023-03-20T17:42:46.476Z,736.70
2023-03-20T17:45:15.151Z,758.60
2023-03-20T17:47:43.779Z,754.80
2023-03-20T17:50:18.175Z,756.73
2023-03-20T17:52:46.418Z,755.37
2023-03-20T17:55:16.019Z,754.40
2023-03-20T17:57:44.181Z,754.70
2023-03-20T18:00:16.606Z,767.50
2023-03-20T18:02:45.025Z,749.43
2023-03-20T18:05:13.247Z,770.13
2023-03-20T18:07:41.697Z,767.03
2023-03-20T18:10:17.284Z,762.60
2023-03-20T18:12:46.874Z,743.47
2023-03-20T18:15:15.059Z,765.10
2023-03-20T18:17:43.214Z,762.07
2023-03-20T18:20:21.937Z,762.03
2023-03-20T18:22:50.163Z,767.00
2023-03-20T18:25:18.466Z,784.53
2023-03-20T18:27:48.033Z,755.63
2023-03-20T18:30:17.918Z,767.70
2023-03-20T18:32:46.127Z,770.87
2023-03-20T18:35:14.509Z,772.07
2023-03-20T18:37:42.888Z,760.33
2023-03-20T18:40:17.715Z,783.33
2023-03-20T18:42:46.156Z,767.00
2023-03-20T18:45:16.961Z,780.70
2023-03-20T18:47:45.380Z,782.23
2023-03-20T18:50:25.188Z,771.10
2023-03-20T18:52:54.018Z,763.03
2023-03-20T18:55:23.045Z,776.43
2023-03-20T18:57:51.373Z,789.90
2023-03-20T19:00:25.501Z,744.40
2023-03-20T19:02:55.160Z,764.93
2023-03-20T19:05:23.578Z,781.90
2023-03-20T19:07:52.048Z,788.40
2023-03-20T19:10:26.046Z,775.30
2023-03-20T19:12:54.572Z,778.67
2023-03-20T19:15:24.563Z,784.87
2023-03-20T19:17:52.751Z,782.40
2023-03-20T19:20:28.229Z,784.30
2023-03-20T19:22:56.447Z,783.93
2023-03-20T19:25:24.691Z,780.20
2023-03-20T19:27:53.015Z,781.10
2023-03-20T19:30:27.880Z,789.33
2023-03-20T19:32:56.285Z,777.70
2023-03-20T19:35:47.263Z,787.60
2023-03-20T19:38:14.802Z,780.67
2023-03-20T19:40:44.035Z,796.23
2023-03-20T19:43:12.530Z,793.07
2023-03-20T19:45:43.176Z,798.87
2023-03-20T19:48:15.387Z,803.00
2023-03-20T19:50:43.983Z,805.90
2023-03-20T19:53:12.788Z,811.33
2023-03-20T19:55:41.115Z,803.13
2023-03-20T19:58:09.768Z,800.30
2023-03-20T20:00:56.894Z,799.13
2023-03-20T20:03:27.928Z,795.57
2023-03-20T20:05:56.250Z,801.90
2023-03-20T20:08:41.347Z,785.30
2023-03-20T20:11:14.401Z,780.77
2023-03-20T20:14:04.090Z,787.93
2023-03-20T20:16:31.624Z,797.87
2023-03-20T20:19:01.323Z,801.87
2023-03-20T20:24:18.022Z,794.53
2023-03-20T20:26:54.449Z,792.97
2023-03-20T20:29:25.656Z,798.63
2023-03-20T20:31:53.921Z,810.13
2023-03-20T20:40:00.335Z,810.80
2023-03-20T20:42:28.525Z,796.00
2023-03-20T20:44:56.706Z,793.67
2023-03-20T20:47:24.872Z,793.67
2023-03-20T20:49:54.425Z,795.97
2023-03-20T20:52:22.761Z,778.87
2023-03-20T20:54:50.981Z,785.67
2023-03-20T20:57:19.142Z,777.27
2023-03-20T20:59:47.395Z,774.67
2023-03-20T21:02:17.395Z,773.33
2023-03-20T21:04:45.737Z,763.23
2023-03-20T21:07:15.678Z,767.80
2023-03-20T21:09:43.805Z,793.70
2023-03-20T21:12:22.828Z,791.87
2023-03-20T21:14:54.765Z,772.10
2023-03-20T21:17:23.201Z,784.53
2023-03-20T21:19:51.941Z,790.17
2023-03-20T21:22:22.406Z,788.77
2023-03-20T21:24:52.028Z,804.33
2023-03-20T21:27:22.736Z,792.37
2023-03-20T21:29:51.159Z,788.93
2023-03-20T21:32:20.599Z,777.57
2023-03-20T21:34:49.292Z,784.60
2023-03-20T21:40:08.789Z,789.67
2023-03-20T21:42:37.365Z,805.27
2023-03-20T21:46:09.891Z,789.90
2023-03-20T21:51:07.305Z,792.50
2023-03-20T21:59:47.362Z,786.73
2023-03-20T22:02:14.560Z,798.27
2023-03-20T22:25:15.817Z,784.90
2023-03-20T22:27:55.323Z,786.37
2023-03-20T22:33:49.469Z,781.20
2023-03-20T22:46:58.749Z,810.87
2023-03-20T22:49:27.256Z,811.77
2023-03-20T22:54:43.729Z,823.50
2023-03-20T22:57:11.869Z,815.07
2023-03-20T22:59:40.238Z,801.50
2023-03-20T23:02:10.504Z,778.57
2023-03-20T23:04:38.827Z,779.43
2023-03-20T23:07:07.334Z,785.47
2023-03-20T23:09:35.485Z,780.23
2023-03-20T23:12:03.640Z,764.10
2023-03-20T23:14:44.773Z,775.03
2023-03-20T23:17:15.242Z,784.00
2023-03-20T23:19:50.449Z,780.47
2023-03-20T23:22:22.327Z,770.63
2023-03-20T23:24:51.144Z,754.60
2023-03-20T23:27:20.365Z,773.23
2023-03-20T23:29:48.590Z,771.43
2023-03-20T23:32:18.136Z,769.60
2023-03-20T23:34:46.315Z,755.30
2023-03-20T23:37:14.472Z,754.77
2023-03-20T23:39:43.175Z,747.40
2023-03-20T23:42:27.608Z,769.30
2023-03-20T23:45:04.334Z,758.97
2023-03-20T23:47:44.802Z,761.03
2023-03-20T23:50:26.410Z,778.60
2023-03-20T23:53:06.456Z,777.77
2023-03-20T23:55:42.051Z,774.43
2023-03-20T23:58:10.459Z,770.50
